RJNO(METAR)
04/28 16:00
RJNO 280700Z 21008KT CAVOK 17/07 Q1004 RMK A2966=
戻る
トップページへ戻る
IMOC Co,.Ltd.